KPTD Airport (Potsdam Muni/Damon Fld) Information

FAA: PTD - ICAO: KPTD

KPTD Airport Location

State New York
County St Lawrence
City Potsdam
KPTD Airport is 2 miles east of Potsdam, NY.
Latitude 44-40-36.0000N
Longitude 074-56-54.4000W
Elevation 473ft

KPTD Airport METARs

METAR KPTD 282335Z AUTO 34003KT 10SM CLR 19/10 A2984 RMK AO2
Altimeter 29.84"
Temperature 19.0°C (66.2°F)
Wind 340° at 3KT
Clouds Skies are clear.
Visibility 10.0mi
Time observed: 2022-05-28T23:35:00Z

KPTD Airport Details

Status Operational
Activation November 1944
Ownership Public
Usage Public
Chart MONTREAL
ATC on-site No
Beacon schedule sunset-sunrise
Beacon color clear green

KPTD Airport Contacts

Owner VILLAGE OF POTSDAM
Owner address CIVIC CENTER, PO BOX 5168, POTSDAM, NY 13676
Owner phone 315-265-7480
Manager BRETT BAKER
Manager address 1 CHARLES POINT AVE., PEEKSKILL, NY 10566
Manager phone 914-739-9304

KPTD Airport (Potsdam Muni/Damon Fld) Radio Frequencies

KPTD (Airport) Radio Frequencies

UNICOM 122.8
Common traffic advisory frequency (CTAF) 122.8